createdAt,value
2018-06-04T00:00:10.439Z,98395.53
2018-06-04T00:02:39.420Z,98403.69
2018-06-04T00:05:07.801Z,98393.95
2018-06-04T00:07:36.041Z,98389.99
2018-06-04T00:10:04.773Z,98399.17
2018-06-04T00:12:33.092Z,98392.16
2018-06-04T00:15:01.225Z,98389.30
2018-06-04T00:17:29.352Z,98392.27
2018-06-04T00:19:57.498Z,98386.50
2018-06-04T00:22:26.655Z,98380.45
2018-06-04T00:24:54.708Z,98379.67
2018-06-04T00:27:23.263Z,98379.67
2018-06-04T00:29:51.346Z,98378.34
2018-06-04T00:32:19.598Z,98383.68
2018-06-04T00:34:47.904Z,98374.89
2018-06-04T00:37:16.429Z,98371.55
2018-06-04T00:39:45.543Z,98377.08
2018-06-04T00:42:14.405Z,98369.31
2018-06-04T00:44:42.492Z,98371.69
2018-06-04T00:47:10.596Z,98371.63
2018-06-04T00:49:38.876Z,98370.61
2018-06-04T00:52:09.413Z,98370.36
2018-06-04T00:54:38.478Z,98377.58
2018-06-04T00:57:06.708Z,98374.62
2018-06-04T00:59:36.211Z,98361.19
2018-06-04T01:02:04.806Z,98366.81
2018-06-04T01:04:32.915Z,98363.86
2018-06-04T01:07:01.033Z,98360.15
2018-06-04T01:09:29.152Z,98356.16
2018-06-04T01:11:57.501Z,98352.17
2018-06-04T01:14:26.000Z,98346.84
2018-06-04T01:16:54.108Z,98340.90
2018-06-04T01:19:22.761Z,98347.56
2018-06-04T01:21:51.360Z,98347.06
2018-06-04T01:24:20.514Z,98346.27
2018-06-04T01:26:48.588Z,98336.16
2018-06-04T01:29:17.456Z,98345.94
2018-06-04T01:31:46.992Z,98350.61
2018-06-04T01:34:15.135Z,98345.09
2018-06-04T01:36:43.229Z,98341.20
2018-06-04T01:39:13.326Z,98342.03
2018-06-04T01:41:43.283Z,98344.77
2018-06-04T01:44:13.477Z,98344.78
2018-06-04T01:46:42.013Z,98336.82
2018-06-04T01:49:10.580Z,98333.48
2018-06-04T01:51:38.670Z,98326.20
2018-06-04T01:54:06.761Z,98322.40
2018-06-04T01:56:34.849Z,98326.56
2018-06-04T01:59:02.973Z,98323.91
2018-06-04T02:01:31.389Z,98329.88
2018-06-04T02:03:59.493Z,98326.56
2018-06-04T02:06:27.585Z,98323.88
2018-06-04T02:08:55.780Z,98325.83
2018-06-04T02:11:24.092Z,98327.03
2018-06-04T02:13:52.180Z,98326.38
2018-06-04T02:16:20.624Z,98323.23
2018-06-04T02:18:49.662Z,98324.09
2018-06-04T02:21:17.781Z,98323.98
2018-06-04T02:23:47.381Z,98312.05
2018-06-04T02:26:15.616Z,98312.72
2018-06-04T02:28:44.101Z,98325.98
2018-06-04T02:31:13.201Z,98324.66
2018-06-04T02:33:41.846Z,98325.01
2018-06-04T02:36:11.020Z,98323.81
2018-06-04T02:38:40.547Z,98315.36
2018-06-04T02:41:08.688Z,98319.70
2018-06-04T02:43:37.156Z,98315.38
2018-06-04T02:46:05.723Z,98310.66
2018-06-04T02:48:34.775Z,98308.41
2018-06-04T02:51:03.129Z,98313.07
2018-06-04T02:56:23.637Z,98303.48
2018-06-04T02:58:51.961Z,98303.80
2018-06-04T03:01:20.132Z,98300.69
2018-06-04T03:03:48.261Z,98301.84
2018-06-04T03:06:17.477Z,98307.64
2018-06-04T03:08:47.533Z,98306.45
2018-06-04T03:11:15.768Z,98300.47
2018-06-04T03:13:44.224Z,98307.28
2018-06-04T03:16:12.392Z,98304.62
2018-06-04T03:18:41.774Z,98303.13
2018-06-04T03:21:10.112Z,98302.11
2018-06-04T03:23:39.933Z,98308.61
2018-06-04T03:26:09.286Z,98309.45
2018-06-04T03:28:37.780Z,98311.27
2018-06-04T03:31:06.350Z,98308.13
2018-06-04T03:33:34.640Z,98305.82
2018-06-04T03:36:02.784Z,98313.92
2018-06-04T03:38:30.907Z,98321.88
2018-06-04T03:40:59.001Z,98314.58
2018-06-04T03:43:27.089Z,98326.52
2018-06-04T03:45:55.213Z,98319.39
2018-06-04T03:48:23.573Z,98316.91
2018-06-04T03:50:51.693Z,98315.24
2018-06-04T03:53:21.532Z,98315.06
2018-06-04T03:55:49.669Z,98317.89
2018-06-04T03:58:17.793Z,98324.34
2018-06-04T04:00:46.665Z,98327.83
2018-06-04T04:03:15.336Z,98317.66
2018-06-04T04:05:43.493Z,98314.52
2018-06-04T04:08:11.612Z,98313.19
2018-06-04T04:10:41.387Z,98312.94
2018-06-04T04:13:10.823Z,98317.86
2018-06-04T04:15:39.838Z,98320.48
2018-06-04T04:18:07.940Z,98316.71
2018-06-04T04:20:36.930Z,98319.59
2018-06-04T04:23:05.152Z,98318.72
2018-06-04T04:25:33.244Z,98317.80
2018-06-04T04:28:02.486Z,98315.28
2018-06-04T04:30:30.692Z,98312.45
2018-06-04T04:32:58.942Z,98306.58
2018-06-04T04:35:27.232Z,98304.55
2018-06-04T04:37:55.860Z,98296.58
2018-06-04T04:40:24.058Z,98302.64
2018-06-04T04:42:52.163Z,98306.67
2018-06-04T04:45:20.329Z,98305.02
2018-06-04T04:47:48.478Z,98306.43
2018-06-04T04:50:16.613Z,98307.84
2018-06-04T04:52:45.708Z,98304.32
2018-06-04T04:55:13.814Z,98312.27
2018-06-04T04:57:42.202Z,98310.75
2018-06-04T05:00:10.344Z,98312.58
2018-06-04T05:02:39.393Z,98311.61
2018-06-04T05:05:07.852Z,98314.14
2018-06-04T05:07:35.946Z,98313.83
2018-06-04T05:10:04.062Z,98313.77
2018-06-04T05:12:32.290Z,98309.03
2018-06-04T05:15:00.452Z,98302.31
2018-06-04T05:17:28.693Z,98308.52
2018-06-04T05:19:57.696Z,98305.23
2018-06-04T05:22:25.941Z,98302.49
2018-06-04T05:24:54.198Z,98302.49
2018-06-04T05:27:22.403Z,98309.50
2018-06-04T05:29:50.640Z,98305.41
2018-06-04T05:32:18.756Z,98304.26
2018-06-04T05:34:46.836Z,98303.77
2018-06-04T05:37:14.988Z,98303.23
2018-06-04T05:39:43.244Z,98306.84
2018-06-04T05:42:11.451Z,98300.66
2018-06-04T05:44:39.563Z,98301.73
2018-06-04T05:47:07.717Z,98302.23
2018-06-04T05:49:35.839Z,98300.90
2018-06-04T05:52:03.905Z,98300.11
2018-06-04T05:54:32.096Z,98298.75
2018-06-04T05:57:00.210Z,98297.16
2018-06-04T05:59:29.069Z,98301.17
2018-06-04T06:01:57.231Z,98296.11
2018-06-04T06:04:25.704Z,98295.55
2018-06-04T06:06:54.372Z,98294.67
2018-06-04T06:09:22.621Z,98295.97
2018-06-04T06:11:50.718Z,98286.67
2018-06-04T06:14:18.811Z,98286.84
2018-06-04T06:16:46.910Z,98284.80
2018-06-04T06:19:15.343Z,98287.57
2018-06-04T06:21:43.537Z,98293.83
2018-06-04T06:24:11.620Z,98282.17
2018-06-04T06:26:39.758Z,98283.64
2018-06-04T06:29:08.692Z,98280.94
2018-06-04T06:31:37.155Z,98280.95
2018-06-04T06:34:05.333Z,98276.84
2018-06-04T06:36:33.436Z,98276.17
2018-06-04T06:39:01.691Z,98276.55
2018-06-04T06:41:29.937Z,98276.06
2018-06-04T06:43:58.210Z,98278.55
2018-06-04T06:46:26.297Z,98279.91
2018-06-04T06:48:54.392Z,98276.49
2018-06-04T06:51:23.302Z,98279.77
2018-06-04T06:53:51.411Z,98277.97
2018-06-04T06:56:19.493Z,98276.86
2018-06-04T06:58:47.574Z,98272.13
2018-06-04T07:01:16.996Z,98282.76
2018-06-04T07:03:45.525Z,98268.94
2018-06-04T07:06:15.911Z,98280.78
2018-06-04T07:08:44.012Z,98272.42
2018-06-04T07:11:12.165Z,98278.72
2018-06-04T07:13:40.314Z,98274.48
2018-06-04T07:16:08.687Z,98274.12
2018-06-04T07:18:36.970Z,98272.60
2018-06-04T07:21:05.614Z,98274.81
2018-06-04T07:23:33.688Z,98262.23
2018-06-04T07:26:01.762Z,98263.12
2018-06-04T22:02:38.049Z,98045.16
2018-06-04T22:05:06.454Z,98047.41
2018-06-04T22:07:34.613Z,98044.62
2018-06-04T22:10:02.717Z,98040.95
2018-06-04T22:12:30.903Z,98046.92
2018-06-04T22:14:59.031Z,98043.91
2018-06-04T22:17:27.528Z,98045.83
2018-06-04T22:19:56.171Z,98044.80
2018-06-04T22:22:24.256Z,98048.08
2018-06-04T22:24:52.340Z,98044.80
2018-06-04T22:27:20.424Z,98035.60
2018-06-04T22:29:48.559Z,98034.75
2018-06-04T22:32:16.672Z,98039.75
2018-06-04T22:34:44.858Z,98036.30
2018-06-04T22:37:13.916Z,98034.75
2018-06-04T22:39:42.326Z,98038.73
2018-06-04T22:42:10.764Z,98036.91
2018-06-04T22:44:38.849Z,98032.27
2018-06-04T22:47:06.950Z,98034.04
2018-06-04T22:49:35.040Z,98032.20
2018-06-04T22:52:03.138Z,98032.78
2018-06-04T22:54:31.258Z,98026.88
2018-06-04T22:56:59.451Z,98025.38
2018-06-04T22:59:27.512Z,98021.75
2018-06-04T23:01:55.649Z,98015.97
2018-06-04T23:04:23.731Z,98028.13
2018-06-04T23:06:51.944Z,98024.16
2018-06-04T23:09:20.162Z,98027.98
2018-06-04T23:11:48.435Z,98030.51
2018-06-04T23:14:16.823Z,98025.95
2018-06-04T23:16:44.954Z,98028.45
2018-06-04T23:19:13.048Z,98027.66
2018-06-04T23:21:42.296Z,98026.45
2018-06-04T23:24:10.442Z,98034.83
2018-06-04T23:26:39.623Z,98022.02
2018-06-04T23:29:07.720Z,98029.44
2018-06-04T23:31:35.884Z,98026.53
2018-06-04T23:34:03.988Z,98027.53
2018-06-04T23:36:32.084Z,98023.53
2018-06-04T23:39:00.217Z,98027.42
2018-06-04T23:41:28.327Z,98024.23
2018-06-04T23:43:56.423Z,98015.19
2018-06-04T23:46:25.441Z,98018.73
2018-06-04T23:48:53.560Z,98016.16
2018-06-04T23:51:21.672Z,98015.88
2018-06-04T23:53:49.836Z,98022.05
2018-06-04T23:56:18.495Z,98025.20
2018-06-04T23:58:46.579Z,98020.88
